createdAt,value
2023-01-30T00:01:40.121Z,100.00
2023-01-30T00:04:07.325Z,100.00
2023-01-30T00:06:34.220Z,100.00
2023-01-30T00:09:01.066Z,100.00
2023-01-30T00:11:30.376Z,100.00
2023-01-30T00:14:00.803Z,100.00
2023-01-30T00:16:27.520Z,100.00
2023-01-30T00:18:54.850Z,100.00
2023-01-30T00:21:21.635Z,100.00
2023-01-30T00:23:48.260Z,100.00
2023-01-30T00:26:15.256Z,100.00
2023-01-30T00:28:42.121Z,100.00
2023-01-30T00:31:09.781Z,100.00
2023-01-30T00:33:37.836Z,100.00
2023-01-30T00:36:05.758Z,100.00
2023-01-30T00:38:32.536Z,100.00
2023-01-30T00:40:59.090Z,100.00
2023-01-30T00:43:44.593Z,100.00
2023-01-30T00:46:45.494Z,100.00
2023-01-30T00:49:12.944Z,100.00
2023-01-30T00:51:39.907Z,100.00
2023-01-30T00:54:06.758Z,100.00
2023-01-30T00:56:33.805Z,100.00
2023-01-30T00:59:00.773Z,100.00
2023-01-30T01:01:27.428Z,100.00
2023-01-30T01:03:54.128Z,100.00
2023-01-30T01:06:20.769Z,100.00
2023-01-30T01:08:47.592Z,100.00
2023-01-30T01:11:24.683Z,100.00
2023-01-30T01:14:02.235Z,100.00
2023-01-30T01:16:30.244Z,100.00
2023-01-30T01:18:56.958Z,100.00
2023-01-30T01:21:23.996Z,100.00
2023-01-30T01:23:52.029Z,100.00
2023-01-30T01:26:19.410Z,100.00
2023-01-30T01:28:46.310Z,100.00
2023-01-30T01:31:14.957Z,100.00
2023-01-30T01:33:41.695Z,100.00
2023-01-30T01:36:09.168Z,100.00
2023-01-30T01:38:35.805Z,100.00
2023-01-30T01:41:02.439Z,100.00
2023-01-30T01:43:32.440Z,100.00
2023-01-30T01:46:12.589Z,100.00
2023-01-30T01:48:42.506Z,100.00
2023-01-30T01:51:13.479Z,100.00
2023-01-30T01:53:46.392Z,100.00
2023-01-30T01:56:15.243Z,100.00
2023-01-30T01:58:48.498Z,100.00
2023-01-30T02:01:15.651Z,100.00
2023-01-30T02:03:46.327Z,100.00
2023-01-30T02:06:14.873Z,100.00
2023-01-30T02:08:45.914Z,100.00
2023-01-30T02:11:35.385Z,100.00
2023-01-30T02:14:02.770Z,100.00
2023-01-30T02:16:29.504Z,100.00
2023-01-30T02:18:56.149Z,100.00
2023-01-30T02:22:08.980Z,100.00
2023-01-30T02:25:23.012Z,100.00
2023-01-30T02:28:27.641Z,100.00
2023-01-30T02:31:19.161Z,100.00
2023-01-30T02:34:11.987Z,100.00
2023-01-30T02:37:31.254Z,100.00
2023-01-30T02:40:50.414Z,100.00
2023-01-30T02:43:25.320Z,100.00
2023-01-30T02:45:58.789Z,100.00
2023-01-30T02:48:35.270Z,100.00
2023-01-30T02:51:06.335Z,100.00
2023-01-30T02:53:34.038Z,100.00
2023-01-30T02:56:01.575Z,100.00
2023-01-30T02:58:33.319Z,100.00
2023-01-30T03:01:16.915Z,100.00
2023-01-30T03:04:18.670Z,100.00
2023-01-30T03:07:37.788Z,100.00
2023-01-30T03:10:24.406Z,100.00
2023-01-30T03:13:09.570Z,100.00
2023-01-30T03:15:42.616Z,100.00
2023-01-30T03:18:09.745Z,100.00
2023-01-30T03:20:38.340Z,100.00
2023-01-30T03:23:05.096Z,100.00
2023-01-30T03:25:32.509Z,100.00
2023-01-30T03:28:00.257Z,100.00
2023-01-30T03:30:27.181Z,100.00
2023-01-30T03:32:53.812Z,100.00
2023-01-30T03:35:20.618Z,100.00
2023-01-30T03:37:47.602Z,100.00
2023-01-30T03:40:16.484Z,100.00
2023-01-30T03:42:43.342Z,100.00
2023-01-30T03:45:11.317Z,100.00
2023-01-30T03:47:37.975Z,100.00
2023-01-30T03:50:05.014Z,100.00
2023-01-30T03:52:32.028Z,100.00
2023-01-30T03:55:00.212Z,100.00
2023-01-30T03:57:27.015Z,100.00
2023-01-30T03:59:54.077Z,100.00
2023-01-30T04:02:23.374Z,100.00
2023-01-30T04:04:50.154Z,100.00
2023-01-30T04:07:17.882Z,100.00
2023-01-30T04:09:44.954Z,100.00
2023-01-30T04:12:11.701Z,100.00
2023-01-30T04:14:38.337Z,100.00
2023-01-30T04:17:05.391Z,100.00
2023-01-30T04:19:32.095Z,100.00
2023-01-30T04:21:58.727Z,100.00
2023-01-30T04:24:25.332Z,100.00
2023-01-30T04:26:52.154Z,100.00
2023-01-30T04:29:19.410Z,100.00
2023-01-30T04:31:46.131Z,100.00
2023-01-30T04:34:12.823Z,100.00
2023-01-30T04:36:39.957Z,100.00
2023-01-30T04:39:06.629Z,100.00
2023-01-30T04:41:33.343Z,100.00
2023-01-30T04:44:00.000Z,100.00
2023-01-30T04:46:26.644Z,100.00
2023-01-30T04:48:53.369Z,100.00
2023-01-30T04:51:20.307Z,100.00
2023-01-30T04:53:46.947Z,100.00
2023-01-30T04:56:13.581Z,100.00
2023-01-30T04:58:40.218Z,100.00
2023-01-30T05:01:15.256Z,100.00
2023-01-30T05:03:41.885Z,100.00
2023-01-30T05:06:08.529Z,100.00
2023-01-30T05:08:35.393Z,100.00
2023-01-30T05:11:02.005Z,100.00
2023-01-30T05:13:28.653Z,100.00
2023-01-30T05:15:55.493Z,100.00
2023-01-30T05:18:22.107Z,100.00
2023-01-30T05:20:48.798Z,100.00
2023-01-30T05:23:15.451Z,100.00
2023-01-30T05:25:42.200Z,100.00
2023-01-30T05:28:08.885Z,100.00
2023-01-30T05:30:35.617Z,100.00
2023-01-30T05:33:02.349Z,100.00
2023-01-30T05:35:29.413Z,100.00
2023-01-30T05:37:56.216Z,100.00
2023-01-30T05:40:22.835Z,100.00
2023-01-30T05:42:49.447Z,100.00
2023-01-30T05:45:16.521Z,100.00
2023-01-30T05:47:43.376Z,100.00
2023-01-30T05:50:11.144Z,100.00
2023-01-30T05:52:37.722Z,100.00
2023-01-30T05:55:04.605Z,100.00
2023-01-30T05:57:31.252Z,100.00
2023-01-30T05:59:57.936Z,100.00
2023-01-30T06:02:24.629Z,100.00
2023-01-30T06:04:51.242Z,100.00
2023-01-30T06:07:17.875Z,100.00
2023-01-30T06:09:44.501Z,100.00
2023-01-30T06:12:11.131Z,100.00
2023-01-30T06:14:37.764Z,100.00
2023-01-30T06:17:04.480Z,100.00
2023-01-30T06:19:31.350Z,100.00
2023-01-30T06:21:58.096Z,100.00
2023-01-30T06:24:24.721Z,100.00
2023-01-30T06:26:51.550Z,100.00
2023-01-30T06:29:18.466Z,100.00
2023-01-30T06:31:45.162Z,100.00
2023-01-30T06:34:12.326Z,100.00
2023-01-30T06:36:38.927Z,100.00
2023-01-30T06:39:05.560Z,100.00
2023-01-30T06:41:32.135Z,100.00
2023-01-30T06:43:58.727Z,100.00
2023-01-30T06:46:25.375Z,100.00
2023-01-30T06:48:52.206Z,100.00
2023-01-30T06:51:18.870Z,100.00
2023-01-30T06:53:45.639Z,100.00
2023-01-30T06:56:12.347Z,100.00
2023-01-30T06:58:39.024Z,100.00
2023-01-30T07:01:05.889Z,100.00
2023-01-30T07:03:32.504Z,100.00
2023-01-30T07:05:59.150Z,100.00
2023-01-30T07:08:25.975Z,100.00
2023-01-30T07:10:52.976Z,100.00
2023-01-30T07:13:19.729Z,100.00
2023-01-30T07:15:47.169Z,100.00
2023-01-30T07:18:14.011Z,100.00
2023-01-30T07:20:42.329Z,100.00
2023-01-30T07:23:08.972Z,100.00
2023-01-30T07:25:35.587Z,100.00
2023-01-30T07:28:03.182Z,100.00
2023-01-30T07:30:32.389Z,100.00
2023-01-30T07:32:59.925Z,100.00
2023-01-30T07:35:28.777Z,100.00
2023-01-30T07:37:55.613Z,100.00
2023-01-30T07:40:22.606Z,100.00
2023-01-30T07:42:59.790Z,100.00
2023-01-30T07:45:29.492Z,100.00
2023-01-30T07:47:56.115Z,100.00
2023-01-30T07:50:22.777Z,100.00
2023-01-30T07:52:49.444Z,100.00
2023-01-30T07:55:16.582Z,100.00
2023-01-30T07:57:43.468Z,100.00
2023-01-30T08:00:11.075Z,100.00
2023-01-30T08:02:38.347Z,100.00
2023-01-30T08:05:06.347Z,100.00
2023-01-30T08:07:33.190Z,100.00
2023-01-30T08:10:00.106Z,100.00
2023-01-30T08:12:26.784Z,100.00
2023-01-30T08:14:53.505Z,100.00
2023-01-30T08:17:20.168Z,100.00
2023-01-30T08:19:46.802Z,100.00
2023-01-30T08:22:14.678Z,100.00
2023-01-30T08:24:41.481Z,100.00
2023-01-30T08:27:08.167Z,100.00
2023-01-30T08:29:34.863Z,100.00
2023-01-30T08:32:01.827Z,100.00
2023-01-30T08:34:28.561Z,100.00
2023-01-30T08:36:55.203Z,100.00
2023-01-30T08:39:21.857Z,100.00
2023-01-30T08:41:48.621Z,100.00
2023-01-30T08:44:15.286Z,100.00
2023-01-30T08:46:42.008Z,100.00
2023-01-30T08:49:08.622Z,100.00
2023-01-30T08:51:35.420Z,100.00
2023-01-30T08:54:02.115Z,100.00
2023-01-30T08:56:29.495Z,100.00
2023-01-30T08:58:56.431Z,100.00
2023-01-30T09:01:23.204Z,100.00
2023-01-30T09:03:49.993Z,100.00
2023-01-30T09:06:16.766Z,100.00
2023-01-30T09:08:43.376Z,100.00
2023-01-30T09:11:11.290Z,100.00
2023-01-30T09:13:41.247Z,100.00
2023-01-30T09:16:07.886Z,100.00
2023-01-30T09:18:34.543Z,100.00
2023-01-30T09:21:04.980Z,100.00
2023-01-30T09:23:32.056Z,100.00
2023-01-30T09:25:58.739Z,100.00
2023-01-30T09:28:25.459Z,100.00
2023-01-30T09:30:52.207Z,100.00
2023-01-30T09:33:20.560Z,100.00
2023-01-30T09:35:48.451Z,100.00
2023-01-30T09:38:16.020Z,100.00
2023-01-30T09:40:58.915Z,100.00
2023-01-30T09:43:49.281Z,100.00
2023-01-30T09:46:30.419Z,100.00
2023-01-30T09:49:17.645Z,100.00
2023-01-30T09:52:04.430Z,100.00
2023-01-30T09:54:33.720Z,100.00
2023-01-30T09:57:32.613Z,100.00
2023-01-30T10:00:20.679Z,100.00
2023-01-30T10:03:20.476Z,100.00
2023-01-30T10:05:49.736Z,100.00
2023-01-30T10:09:03.202Z,100.00
2023-01-30T10:11:50.496Z,100.00
2023-01-30T10:14:49.889Z,100.00
2023-01-30T10:17:58.137Z,100.00
2023-01-30T10:20:44.057Z,100.00
2023-01-30T10:23:57.593Z,100.00
2023-01-30T10:26:27.002Z,100.00
2023-01-30T10:29:07.260Z,100.00
2023-01-30T10:31:43.278Z,100.00
2023-01-30T10:34:12.884Z,100.00
2023-01-30T10:36:44.042Z,100.00
2023-01-30T10:39:31.704Z,100.00
2023-01-30T10:42:13.315Z,100.00
2023-01-30T10:44:43.101Z,100.00
2023-01-30T10:47:47.323Z,100.00
2023-01-30T10:50:20.342Z,100.00
2023-01-30T10:52:53.368Z,100.00
2023-01-30T10:55:37.296Z,100.00
2023-01-30T10:58:43.008Z,100.00
2023-01-30T11:01:19.075Z,100.00
2023-01-30T11:03:48.834Z,100.00
2023-01-30T11:06:18.263Z,100.00
2023-01-30T11:08:45.267Z,100.00
2023-01-30T11:11:33.914Z,100.00
2023-01-30T11:14:09.219Z,100.00
2023-01-30T11:16:45.774Z,100.00
2023-01-30T11:19:22.273Z,100.00
2023-01-30T11:21:52.172Z,100.00
2023-01-30T11:24:25.175Z,100.00
2023-01-30T11:26:53.313Z,100.00
2023-01-30T11:29:31.582Z,100.00
2023-01-30T11:32:25.413Z,100.00
2023-01-30T11:35:04.640Z,100.00
2023-01-30T11:37:32.575Z,100.00
2023-01-30T11:39:59.312Z,100.00
2023-01-30T11:42:31.176Z,100.00
2023-01-30T11:45:16.169Z,100.00
2023-01-30T11:47:57.890Z,100.00
2023-01-30T11:50:34.110Z,100.00
2023-01-30T11:53:04.485Z,100.00
2023-01-30T11:55:34.212Z,100.00
2023-01-30T11:58:01.264Z,100.00
2023-01-30T12:00:38.884Z,100.00
2023-01-30T12:03:07.037Z,100.00
2023-01-30T12:05:35.735Z,100.00
2023-01-30T12:08:39.353Z,100.00
2023-01-30T12:11:25.982Z,100.00
2023-01-30T12:13:55.342Z,100.00
2023-01-30T12:16:50.879Z,100.00
2023-01-30T12:19:29.627Z,100.00
2023-01-30T12:22:05.916Z,100.00
2023-01-30T12:24:46.581Z,100.00
2023-01-30T12:27:18.055Z,100.00
2023-01-30T12:29:55.892Z,100.00
2023-01-30T12:32:27.086Z,100.00
2023-01-30T12:34:53.800Z,100.00
2023-01-30T12:38:25.543Z,100.00
2023-01-30T12:41:46.614Z,100.00
2023-01-30T12:44:21.691Z,100.00
2023-01-30T12:47:47.085Z,100.00
2023-01-30T12:50:26.649Z,100.00
2023-01-30T12:53:25.266Z,99.46
2023-01-30T12:56:16.192Z,98.41
2023-01-30T12:58:52.258Z,99.33
2023-01-30T13:01:49.325Z,97.83
2023-01-30T13:04:56.449Z,98.39
2023-01-30T13:07:41.701Z,95.30
2023-01-30T13:10:16.252Z,94.22
2023-01-30T13:12:51.647Z,94.05
2023-01-30T13:15:32.732Z,93.20
2023-01-30T13:18:10.996Z,93.64
2023-01-30T13:21:00.696Z,90.17
2023-01-30T13:23:50.693Z,89.13
2023-01-30T13:26:21.517Z,89.00
2023-01-30T13:29:00.296Z,89.00
2023-01-30T13:31:30.976Z,88.54
2023-01-30T13:34:07.350Z,89.48
2023-01-30T13:36:46.012Z,88.48
2023-01-30T13:41:50.389Z,88.98
2023-01-30T13:44:31.142Z,87.60
2023-01-30T13:47:00.252Z,87.92
2023-01-30T13:49:58.374Z,84.56
2023-01-30T13:52:52.721Z,84.76
2023-01-30T13:55:34.121Z,82.45
2023-01-30T13:58:25.328Z,83.48
2023-01-30T14:00:55.652Z,83.93
2023-01-30T14:03:29.626Z,83.57
2023-01-30T14:06:02.717Z,83.23
2023-01-30T14:08:39.313Z,82.72
2023-01-30T14:11:35.114Z,80.10
2023-01-30T14:14:41.128Z,80.86
2023-01-30T14:17:11.560Z,80.56
2023-01-30T14:19:48.777Z,78.64
2023-01-30T14:22:47.324Z,79.39
2023-01-30T14:25:23.696Z,79.49
2023-01-30T14:28:01.375Z,79.44
2023-01-30T14:30:48.260Z,78.72
2023-01-30T14:33:34.368Z,78.68
2023-01-30T14:36:33.678Z,78.97
2023-01-30T14:39:38.890Z,79.35
2023-01-30T14:42:11.866Z,80.26
2023-01-30T14:45:05.531Z,80.22
2023-01-30T14:47:40.529Z,80.46
2023-01-30T14:50:23.514Z,80.65
2023-01-30T14:52:50.971Z,82.00
2023-01-30T14:55:24.375Z,82.37
2023-01-30T14:58:15.557Z,82.73
2023-01-30T15:00:42.319Z,82.62
2023-01-30T15:03:17.240Z,82.41
2023-01-30T15:05:44.967Z,83.62
2023-01-30T15:08:18.467Z,83.83
2023-01-30T15:11:06.001Z,83.85
2023-01-30T15:14:05.329Z,83.35
2023-01-30T15:16:48.428Z,82.96
2023-01-30T15:19:45.532Z,83.29
2023-01-30T15:22:31.462Z,84.08
2023-01-30T15:25:36.826Z,83.86
2023-01-30T15:28:12.507Z,83.13
2023-01-30T15:30:50.897Z,83.05
2023-01-30T15:33:30.911Z,82.88
2023-01-30T15:35:58.417Z,81.91
2023-01-30T15:38:34.483Z,82.53
2023-01-30T15:41:02.727Z,82.50
2023-01-30T15:43:48.652Z,83.50
2023-01-30T15:46:48.121Z,83.36
2023-01-30T15:49:57.407Z,84.54
2023-01-30T15:52:29.183Z,84.82
2023-01-30T15:54:57.473Z,86.66
2023-01-30T15:57:30.512Z,91.06
2023-01-30T15:59:57.875Z,89.83
2023-01-30T16:02:42.573Z,90.70
2023-01-30T16:05:20.781Z,90.52
2023-01-30T16:07:50.110Z,91.07
2023-01-30T16:10:19.831Z,90.23
2023-01-30T16:12:47.667Z,91.61
2023-01-30T16:15:41.478Z,91.32
2023-01-30T16:18:23.473Z,90.68
2023-01-30T16:21:02.071Z,90.78
2023-01-30T16:23:43.694Z,90.94
2023-01-30T16:26:18.233Z,90.89
2023-01-30T16:28:45.515Z,90.90
2023-01-30T16:31:12.451Z,92.32
2023-01-30T16:33:39.249Z,92.58
2023-01-30T16:36:27.361Z,91.89
2023-01-30T16:38:55.654Z,92.58
2023-01-30T16:41:35.278Z,93.41
2023-01-30T16:44:22.198Z,92.57
2023-01-30T16:47:27.935Z,93.08
2023-01-30T16:49:56.207Z,92.74
2023-01-30T16:52:29.413Z,92.16
2023-01-30T16:55:01.692Z,93.43
2023-01-30T16:57:41.995Z,93.50
2023-01-30T17:00:34.732Z,93.31
2023-01-30T17:03:05.220Z,93.98
2023-01-30T17:05:39.696Z,93.00
2023-01-30T17:08:45.162Z,93.37
2023-01-30T17:11:29.581Z,93.83
2023-01-30T17:14:14.863Z,94.86
2023-01-30T17:16:46.440Z,95.64
2023-01-30T17:19:14.284Z,96.46
2023-01-30T17:21:49.696Z,97.56
2023-01-30T17:24:19.802Z,97.04
2023-01-30T17:26:52.789Z,97.01
2023-01-30T17:29:41.321Z,97.07
2023-01-30T17:32:12.226Z,98.05
2023-01-30T17:34:41.546Z,98.45
2023-01-30T17:37:20.445Z,99.35
2023-01-30T17:39:47.743Z,99.93
2023-01-30T17:42:15.482Z,100.00
2023-01-30T17:44:42.132Z,100.00
2023-01-30T17:47:11.605Z,100.00
2023-01-30T17:49:38.441Z,100.00
2023-01-30T17:52:05.513Z,100.00
2023-01-30T17:54:32.392Z,100.00
2023-01-30T17:57:07.150Z,100.00
2023-01-30T17:59:33.896Z,100.00
2023-01-30T18:02:00.734Z,100.00
2023-01-30T18:04:27.600Z,100.00
2023-01-30T18:06:59.261Z,100.00
2023-01-30T18:09:27.109Z,100.00
2023-01-30T18:11:53.805Z,100.00
2023-01-30T18:14:22.180Z,100.00
2023-01-30T18:16:49.644Z,100.00
2023-01-30T18:19:24.321Z,100.00
2023-01-30T18:21:51.468Z,100.00
2023-01-30T18:24:18.654Z,99.65
2023-01-30T18:26:46.413Z,99.68
2023-01-30T18:29:13.590Z,99.77
2023-01-30T18:31:41.320Z,99.23
2023-01-30T18:34:10.045Z,99.42
2023-01-30T18:36:37.256Z,99.20
2023-01-30T18:39:05.429Z,98.36
2023-01-30T18:41:32.057Z,97.62
2023-01-30T18:44:03.619Z,97.32
2023-01-30T18:46:30.534Z,97.67
2023-01-30T18:48:58.015Z,96.98
2023-01-30T18:51:27.312Z,96.63
2023-01-30T18:53:54.910Z,95.97
2023-01-30T18:56:31.420Z,96.62
2023-01-30T18:59:02.428Z,96.17
2023-01-30T19:01:31.368Z,96.03
2023-01-30T19:04:00.388Z,96.07
2023-01-30T19:06:28.160Z,96.07
2023-01-30T19:08:56.138Z,96.30
2023-01-30T19:11:41.480Z,96.25
2023-01-30T19:14:09.193Z,95.48
2023-01-30T19:16:37.195Z,95.56
2023-01-30T19:19:04.304Z,95.27
2023-01-30T19:21:31.453Z,95.05
2023-01-30T19:23:58.272Z,95.42
2023-01-30T19:26:25.960Z,94.58
2023-01-30T19:28:52.974Z,94.72
2023-01-30T19:31:21.883Z,94.09
2023-01-30T19:33:55.092Z,94.22
2023-01-30T19:36:23.348Z,94.49
2023-01-30T19:38:50.150Z,94.51
2023-01-30T19:41:29.195Z,94.40
2023-01-30T19:43:56.939Z,94.26
2023-01-30T19:46:23.687Z,93.89
2023-01-30T19:48:50.552Z,94.41
2023-01-30T19:51:20.666Z,94.76
2023-01-30T19:53:51.559Z,94.02
2023-01-30T19:56:21.897Z,93.64
2023-01-30T19:58:52.536Z,92.41
2023-01-30T20:01:20.870Z,93.13
2023-01-30T20:03:48.337Z,92.35
2023-01-30T20:06:20.667Z,91.03
2023-01-30T20:08:50.289Z,91.63
2023-01-30T20:11:18.774Z,90.29
2023-01-30T20:13:46.592Z,90.69
2023-01-30T20:16:15.785Z,90.63
2023-01-30T20:18:42.508Z,90.38
2023-01-30T20:21:11.500Z,90.95
2023-01-30T20:23:39.029Z,90.16
2023-01-30T20:26:07.383Z,90.23
2023-01-30T20:28:34.768Z,89.55
2023-01-30T20:31:08.250Z,89.74
2023-01-30T20:33:35.309Z,89.91
2023-01-30T20:36:03.803Z,90.14
2023-01-30T20:38:34.463Z,90.73
2023-01-30T20:41:18.554Z,90.07
2023-01-30T20:43:49.273Z,89.84
2023-01-30T20:46:21.706Z,89.87
2023-01-30T20:48:49.501Z,88.78
2023-01-30T20:51:23.820Z,89.28
2023-01-30T20:53:55.229Z,89.70
2023-01-30T20:56:23.831Z,89.65
2023-01-30T20:58:50.671Z,89.16
2023-01-30T21:01:23.273Z,89.36
2023-01-30T21:03:52.441Z,89.58
2023-01-30T21:06:37.057Z,90.23
2023-01-30T21:09:21.029Z,90.67
2023-01-30T21:11:49.223Z,91.17
2023-01-30T21:14:16.980Z,91.74
2023-01-30T21:16:43.999Z,91.81
2023-01-30T21:19:15.269Z,91.76
2023-01-30T21:21:54.458Z,93.10
2023-01-30T21:24:27.406Z,93.14
2023-01-30T21:26:54.968Z,93.98
2023-01-30T21:29:27.175Z,94.42
2023-01-30T21:31:56.623Z,95.39
2023-01-30T21:34:23.805Z,96.42
2023-01-30T21:37:09.491Z,95.67
2023-01-30T21:39:54.871Z,96.57
2023-01-30T21:42:40.496Z,97.77
2023-01-30T21:45:07.956Z,98.16
2023-01-30T21:47:34.588Z,97.44
2023-01-30T21:50:01.462Z,98.10
2023-01-30T21:52:28.258Z,98.84
2023-01-30T21:54:54.907Z,99.51
2023-01-30T21:57:23.745Z,99.78
2023-01-30T21:59:50.842Z,99.55
2023-01-30T22:02:17.511Z,99.37
2023-01-30T22:04:44.239Z,98.99
2023-01-30T22:07:10.937Z,98.82
2023-01-30T22:09:37.643Z,98.40
2023-01-30T22:12:04.721Z,98.39
2023-01-30T22:14:33.372Z,98.48
2023-01-30T22:17:00.190Z,98.04
2023-01-30T22:19:26.841Z,98.74
2023-01-30T22:21:53.819Z,98.69
2023-01-30T22:24:20.583Z,98.80
2023-01-30T22:26:47.535Z,99.01
2023-01-30T22:29:15.969Z,99.51
2023-01-30T22:31:42.820Z,99.72
2023-01-30T22:34:09.946Z,99.44
2023-01-30T22:36:38.356Z,99.51
2023-01-30T22:39:05.661Z,100.00
2023-01-30T22:41:34.996Z,99.74
2023-01-30T22:44:03.819Z,99.86
2023-01-30T22:46:32.813Z,98.49
2023-01-30T22:49:00.743Z,97.86
2023-01-30T22:51:30.173Z,96.93
2023-01-30T22:53:59.022Z,96.83
2023-01-30T22:56:40.657Z,97.02
2023-01-30T22:59:08.031Z,97.82
2023-01-30T23:01:37.171Z,97.95
2023-01-30T23:04:06.627Z,97.49
2023-01-30T23:06:33.934Z,97.08
2023-01-30T23:09:01.236Z,97.34
2023-01-30T23:11:34.968Z,97.49
2023-01-30T23:14:10.369Z,96.87
2023-01-30T23:16:39.169Z,95.98
2023-01-30T23:19:07.334Z,96.94
2023-01-30T23:21:40.305Z,96.14
2023-01-30T23:24:15.701Z,94.88
2023-01-30T23:26:48.136Z,95.92
2023-01-30T23:29:17.384Z,93.36
2023-01-30T23:31:45.115Z,94.35
2023-01-30T23:34:19.292Z,94.14
2023-01-30T23:36:46.197Z,93.04
2023-01-30T23:39:14.289Z,92.51
2023-01-30T23:41:42.145Z,92.25
2023-01-30T23:44:09.713Z,90.90
2023-01-30T23:46:39.075Z,89.69
2023-01-30T23:49:08.428Z,89.44
2023-01-30T23:51:36.824Z,89.41
2023-01-30T23:54:04.559Z,89.23
2023-01-30T23:56:32.693Z,88.26
2023-01-30T23:58:59.386Z,88.39
